Time;durP1;ratioP1;P1;durP2;ratioP2;P2;SDS_P1;SDS_P2;PMS_P1;PMS_P2;Temp;Humidity;BMP_temperature;BMP_pressure;BME280_temperature;BME280_humidity;BME280_pressure;Samples;Min_cycle;Max_cycle;Signal;HPM_P1;HPM_P2
2022/04/02 00:00:50;;;;;;;;;1.67;1.00;;;;;16.96;44.66;99893.50;146605;619;46020;-71
2022/04/02 00:03:43;;;;;;;;;1.00;0.00;;;;;16.97;44.43;99889.13;146603;577;46010;-73
2022/04/02 00:06:35;;;;;;;;;1.00;0.00;;;;;16.96;43.90;99898.75;146607;649;46008;-72
2022/04/02 00:09:27;;;;;;;;;1.00;0.00;;;;;16.99;43.13;99895.28;146606;569;46915;-73
2022/04/02 00:12:20;;;;;;;;;2.33;1.67;;;;;17.05;42.83;99901.47;146607;566;46020;-73
2022/04/02 00:15:12;;;;;;;;;1.67;0.33;;;;;17.12;43.22;99894.56;146605;619;46010;-70
2022/04/02 00:18:04;;;;;;;;;1.67;0.00;;;;;17.20;42.68;99892.03;146605;570;46021;-75
2022/04/02 00:20:56;;;;;;;;;1.33;0.00;;;;;17.29;43.08;99893.00;146603;604;47010;-70
2022/04/02 00:23:49;;;;;;;;;1.00;0.00;;;;;17.36;43.17;99887.84;146608;680;46008;-71
2022/04/02 00:26:40;;;;;;;;;1.00;1.00;;;;;17.42;43.07;99885.28;146604;608;47914;-72
2022/04/02 00:29:34;;;;;;;;;0.00;0.00;;;;;17.46;42.39;99889.69;146607;594;46020;-72
2022/04/02 00:32:25;;;;;;;;;0.33;0.00;;;;;17.51;42.29;99894.13;146605;583;46012;-71
2022/04/02 00:35:18;;;;;;;;;4.25;0.00;;;;;17.58;42.52;99896.78;146604;658;46020;-72
2022/04/02 00:38:10;;;;;;;;;3.00;1.00;;;;;17.62;42.13;99893.31;146605;619;46027;-70
2022/04/02 00:41:02;;;;;;;;;1.75;1.50;;;;;17.65;41.87;99899.47;146608;600;46008;-71
2022/04/02 00:44:11;;;;;;;;;4.25;1.25;;;;;17.64;43.13;99891.59;146604;688;46016;-68
2022/04/02 00:47:02;;;;;;;;;0.33;0.00;;;;;17.53;43.36;99892.38;146610;655;45021;-71
2022/04/02 00:49:55;;;;;;;;;0.50;0.50;;;;;17.38;43.62;99902.69;146604;651;46016;-68
2022/04/02 00:52:47;;;;;;;;;2.33;1.33;;;;;17.23;44.85;99905.16;146608;614;46021;-67
2022/04/02 00:55:40;;;;;;;;;3.25;1.75;;;;;17.07;44.53;99901.47;146604;579;46016;-69
2022/04/02 00:58:32;;;;;;;;;3.00;3.00;;;;;16.89;45.44;99899.53;146609;563;46008;-69
2022/04/02 01:01:24;;;;;;;;;6.00;4.75;;;;;16.71;45.58;99904.50;146601;684;46017;-70
2022/04/02 01:04:17;;;;;;;;;2.50;2.00;;;;;16.50;46.34;99905.94;146609;649;46020;-72
2022/04/02 01:07:09;;;;;;;;;2.00;0.67;;;;;16.37;45.65;99910.13;146604;583;46016;-72
2022/04/02 01:10:03;;;;;;;;;1.67;0.33;;;;;16.27;45.52;99913.47;146610;675;46008;-73
2022/04/02 01:12:55;;;;;;;;;4.25;1.00;;;;;16.25;45.48;99914.28;146605;572;46010;-72
2022/04/02 01:15:47;;;;;;;;;6.25;1.75;;;;;16.24;46.13;99916.03;146607;571;45021;-73
2022/04/02 01:18:39;;;;;;;;;0.33;0.00;;;;;16.23;45.24;99918.63;146607;652;46914;-73
2022/04/02 01:21:33;;;;;;;;;0.33;0.00;;;;;16.27;44.52;99923.94;146607;600;46020;-73
2022/04/02 01:24:25;;;;;;;;;2.00;1.75;;;;;16.38;44.44;99930.19;146605;600;46915;-72
2022/04/02 01:27:17;;;;;;;;;0.67;0.67;;;;;16.48;44.23;99927.72;146610;677;45020;-71
2022/04/02 01:30:10;;;;;;;;;1.00;1.00;;;;;16.59;44.37;99926.13;146604;685;47010;-73
2022/04/02 01:33:02;;;;;;;;;2.67;0.00;;;;;16.70;43.38;99915.81;146607;663;46020;-74
2022/04/02 01:36:08;;;;;;;;;1.00;0.00;;;;;16.81;42.84;99924.72;146605;572;46016;-73
2022/04/02 01:39:00;;;;;;;;;3.00;0.00;;;;;16.87;42.92;99922.19;146608;654;46020;-73
2022/04/02 01:41:52;;;;;;;;;3.75;1.00;;;;;16.93;42.45;99927.50;146605;637;45914;-78
2022/04/02 01:44:49;;;;;;;;;2.33;1.67;;;;;17.01;43.00;99928.50;146606;567;46020;-77
2022/04/02 01:47:42;;;;;;;;;2.33;1.00;;;;;17.10;43.21;99938.19;146602;597;46016;-75
2022/04/02 01:50:34;;;;;;;;;0.67;0.00;;;;;17.13;42.42;99926.88;146609;626;46020;-71
2022/04/02 01:53:28;;;;;;;;;0.75;0.75;;;;;17.13;42.84;99921.62;146603;572;46010;-73
2022/04/02 01:56:20;;;;;;;;;3.00;2.00;;;;;17.12;42.88;99919.88;146607;586;46008;-71
2022/04/02 01:59:13;;;;;;;;;2.00;0.75;;;;;17.09;43.03;99923.34;146603;581;46016;-76
2022/04/02 02:02:05;;;;;;;;;2.00;2.00;;;;;17.07;42.78;99922.44;146604;629;46021;-73
2022/04/02 02:04:57;;;;;;;;;3.00;1.00;;;;;17.06;42.83;99923.28;146601;590;47010;-76
2022/04/02 02:07:53;;;;;;;;;0.00;0.00;;;;;17.05;42.66;99919.81;146629;679;44912;-73
2022/04/02 02:10:47;;;;;;;;;2.00;1.00;;;;;17.03;42.84;99929.38;146624;569;45914;-72
2022/04/02 02:13:39;;;;;;;;;4.33;1.00;;;;;16.99;42.71;99930.19;146629;614;46008;-72
2022/04/02 02:16:31;;;;;;;;;2.00;1.00;;;;;16.96;42.91;99935.41;146629;584;45915;-72
2022/04/02 02:19:23;;;;;;;;;1.67;1.67;;;;;16.88;42.71;99929.16;146628;624;46008;-71
2022/04/02 02:22:15;;;;;;;;;3.75;1.00;;;;;16.79;43.23;99935.19;146624;657;46915;-72
2022/04/02 02:25:07;;;;;;;;;3.50;3.50;;;;;16.72;42.60;99937.66;146630;648;45012;-70
2022/04/02 02:28:00;;;;;;;;;0.67;0.67;;;;;16.70;42.76;99936.75;146630;628;45010;-70
2022/04/02 02:30:52;;;;;;;;;2.00;0.33;;;;;16.70;42.24;99940.28;146628;703;45008;-72
2022/04/02 02:36:55;;;;;;;;;1.00;1.00;;;;;16.85;41.68;99953.59;146632;628;45020;-69
2022/04/02 02:39:47;;;;;;;;;1.33;1.33;;;;;16.92;41.72;99949.31;146625;616;46010;-71
2022/04/02 02:42:39;;;;;;;;;1.00;0.00;;;;;16.96;41.38;99951.12;146627;579;45020;-69
2022/04/02 02:45:31;;;;;;;;;1.33;1.00;;;;;16.99;41.74;99959.00;146630;620;45915;-71
2022/04/02 02:48:23;;;;;;;;;1.33;1.00;;;;;16.97;42.02;99965.97;146629;577;45020;-71
2022/04/02 02:51:16;;;;;;;;;0.00;0.00;;;;;16.91;42.16;99965.88;146627;627;45017;-71
2022/04/02 02:54:07;;;;;;;;;1.00;1.00;;;;;16.83;42.34;99963.16;146627;573;45020;-71
2022/04/02 02:57:00;;;;;;;;;0.67;0.00;;;;;16.73;42.39;99982.19;146624;569;46012;-71
2022/04/02 02:59:52;;;;;;;;;2.25;1.00;;;;;16.62;43.18;99976.78;146630;695;45020;-71
2022/04/02 03:02:44;;;;;;;;;3.25;1.50;;;;;16.51;42.94;99969.63;146626;582;45030;-70
2022/04/02 03:05:36;;;;;;;;;2.33;1.00;;;;;15.46;43.09;99811.06;146624;671;45020;-69
2022/04/02 03:08:28;;;;;;;;;1.00;1.00;;;;;16.33;42.72;99972.88;146606;670;46016;-71
2022/04/02 03:11:20;;;;;;;;;1.67;1.00;;;;;16.25;43.00;99966.62;146606;671;46020;-70
2022/04/02 03:14:12;;;;;;;;;2.00;0.25;;;;;16.19;42.90;99971.75;146601;646;47010;-70
2022/04/02 03:17:04;;;;;;;;;0.00;0.00;;;;;16.12;43.16;99983.84;146607;629;46008;-69
2022/04/02 03:19:56;;;;;;;;;0.50;0.50;;;;;16.11;43.15;99976.88;146606;605;46010;-69
2022/04/02 03:22:50;;;;;;;;;0.50;0.25;;;;;16.16;43.04;99996.97;146608;566;46021;-70
2022/04/02 03:25:42;;;;;;;;;2.25;1.25;;;;;16.19;42.83;99990.94;146605;602;46914;-70
2022/04/02 03:28:34;;;;;;;;;3.50;1.00;;;;;16.24;42.91;99997.12;146608;579;46020;-72
2022/04/02 03:31:26;;;;;;;;;2.00;2.00;;;;;16.28;43.16;100013.75;146607;690;46029;-73
2022/04/02 03:34:18;;;;;;;;;1.50;1.00;;;;;16.22;43.70;100003.19;146608;615;46008;-71
2022/04/02 03:37:11;;;;;;;;;1.00;1.00;;;;;16.07;43.10;100001.19;146604;630;46011;-72
2022/04/02 03:40:02;;;;;;;;;3.33;1.00;;;;;15.92;43.35;99992.22;146607;647;46008;-73
2022/04/02 03:42:55;;;;;;;;;1.00;1.00;;;;;15.85;43.93;99994.69;146606;608;46013;-74
2022/04/02 03:45:46;;;;;;;;;1.00;0.75;;;;;15.83;43.94;100001.66;146610;585;46008;-73
2022/04/02 03:48:39;;;;;;;;;3.00;2.00;;;;;15.77;44.41;100004.16;146604;618;46010;-71
2022/04/02 03:51:31;;;;;;;;;2.67;0.67;;;;;15.67;44.06;99998.75;146610;592;46008;-71
2022/04/02 03:54:23;;;;;;;;;3.00;1.00;;;;;15.61;44.49;100009.03;146607;667;46010;-70
2022/04/02 03:57:17;;;;;;;;;1.00;1.00;;;;;15.64;44.28;100021.28;146610;622;46020;-71
2022/04/02 04:00:10;;;;;;;;;4.25;2.75;;;;;15.69;44.06;100024.88;146607;566;46915;-70
2022/04/02 04:03:03;;;;;;;;;2.00;1.00;;;;;15.72;43.42;100026.69;146608;585;46024;-70
2022/04/02 04:05:56;;;;;;;;;1.25;1.00;;;;;15.77;43.95;100030.28;146605;581;45915;-71
2022/04/02 04:08:48;;;;;;;;;2.00;1.50;;;;;15.78;44.13;100024.19;146604;578;47008;-72
2022/04/02 04:11:41;;;;;;;;;1.00;1.00;;;;;15.78;44.28;100038.13;146606;684;46016;-73
2022/04/02 04:14:33;;;;;;;;;3.00;1.00;;;;;15.79;43.50;100039.00;146606;611;47008;-73
2022/04/02 04:17:25;;;;;;;;;2.00;1.00;;;;;15.80;43.47;100049.50;146603;586;46016;-73
2022/04/02 04:20:18;;;;;;;;;1.00;1.00;;;;;15.80;43.76;100057.34;146607;628;46020;-72
2022/04/02 04:23:10;;;;;;;;;2.50;2.50;;;;;15.78;43.40;100051.22;146606;571;45863;-72
2022/04/02 04:26:02;;;;;;;;;3.00;2.25;;;;;15.80;43.61;100046.03;146608;565;45020;-73
2022/04/02 04:28:54;;;;;;;;;2.25;2.25;;;;;15.81;43.58;100050.41;146606;686;46017;-73
2022/04/02 04:31:47;;;;;;;;;4.25;3.50;;;;;15.84;44.02;100059.16;146608;643;46008;-73
2022/04/02 04:34:39;;;;;;;;;2.50;2.00;;;;;15.90;43.26;100067.13;146607;572;46010;-71
2022/04/02 04:37:31;;;;;;;;;2.75;2.75;;;;;16.00;43.32;100059.47;146608;570;46020;-71
2022/04/02 04:40:24;;;;;;;;;0.50;0.50;;;;;16.03;43.31;100070.84;146606;641;46016;-70
2022/04/02 04:43:16;;;;;;;;;3.25;3.00;;;;;16.09;43.50;100078.81;146610;588;46008;-71
2022/04/02 04:46:08;;;;;;;;;3.00;3.00;;;;;16.12;43.76;100071.03;146606;689;47010;-70
2022/04/02 04:49:00;;;;;;;;;3.00;3.00;;;;;16.12;42.86;100078.00;146605;577;47013;-70
2022/04/02 04:51:53;;;;;;;;;2.25;1.75;;;;;16.16;42.99;100078.06;146604;643;46019;-70
2022/04/02 04:54:45;;;;;;;;;3.25;2.75;;;;;16.54;42.00;100088.34;146611;608;45020;-71
2022/04/02 04:57:37;;;;;;;;;3.50;2.00;;;;;17.16;42.15;100091.94;146607;696;46010;-71
2022/04/02 05:00:29;;;;;;;;;2.00;2.00;;;;;17.75;40.64;100095.34;146609;578;46020;-71
2022/04/02 05:03:32;;;;;;;;;2.75;2.75;;;;;18.27;40.59;100092.47;146605;688;47010;-71
2022/04/02 05:06:24;;;;;;;;;2.75;2.00;;;;;18.69;40.17;100109.44;146606;569;47008;-72
2022/04/02 05:09:17;;;;;;;;;2.25;2.25;;;;;19.13;39.40;100112.47;146602;674;47010;-72
2022/04/02 05:12:10;;;;;;;;;3.25;1.75;;;;;18.64;38.94;99944.00;146606;677;46021;-73
2022/04/02 05:15:03;;;;;;;;;4.00;2.67;;;;;19.66;38.74;100097.91;146604;655;46016;-72
2022/04/02 05:17:55;;;;;;;;;2.75;2.75;;;;;19.68;38.36;100101.37;146606;594;46008;-72
2022/04/02 05:20:47;;;;;;;;;2.25;2.25;;;;;19.54;38.25;100089.91;146602;704;47915;-73
2022/04/02 05:23:39;;;;;;;;;7.00;3.00;;;;;19.36;39.56;100095.94;146609;647;45027;-73
2022/04/02 05:26:32;;;;;;;;;5.50;3.25;;;;;19.30;39.67;100103.81;146604;586;46017;-73
2022/04/02 05:29:25;;;;;;;;;6.00;3.50;;;;;19.33;39.34;100101.19;146606;576;46020;-73
2022/04/02 05:32:17;;;;;;;;;5.00;5.00;;;;;19.36;39.49;100098.59;146603;598;47010;-71
2022/04/02 05:35:09;;;;;;;;;4.75;4.75;;;;;19.39;40.69;100114.38;146607;685;46008;-71
2022/04/02 05:38:02;;;;;;;;;3.75;3.75;;;;;19.44;39.85;100117.00;146604;569;47010;-70
2022/04/02 05:40:54;;;;;;;;;4.25;4.25;;;;;19.51;38.56;100117.06;146609;572;45027;-70
2022/04/02 05:43:46;;;;;;;;;4.25;4.00;;;;;19.60;38.70;100114.50;146603;657;46915;-71
2022/04/02 05:46:38;;;;;;;;;4.25;3.00;;;;;19.71;37.59;100111.06;146608;568;46020;-73
2022/04/02 05:49:31;;;;;;;;;1.33;1.33;;;;;19.79;39.68;100115.47;146605;567;46010;-74
2022/04/02 05:52:24;;;;;;;;;5.33;4.33;;;;;19.89;38.21;100128.66;146609;651;46020;-75
2022/04/02 05:55:17;;;;;;;;;1.67;1.67;;;;;19.96;37.35;100130.44;146608;595;45914;-76
2022/04/02 05:58:10;;;;;;;;;2.00;2.00;;;;;20.11;37.93;100130.50;146609;577;46020;-75
2022/04/02 06:01:02;;;;;;;;;3.00;2.00;;;;;20.30;37.24;100108.59;146602;605;47010;-75
2022/04/02 06:03:54;;;;;;;;;4.50;2.25;;;;;20.46;36.45;100121.78;146605;583;46008;-75
2022/04/02 06:06:46;;;;;;;;;2.00;1.00;;;;;20.46;34.86;100109.50;146606;582;46010;-74
2022/04/02 06:09:39;;;;;;;;;3.00;2.00;;;;;20.43;35.77;100106.84;146610;563;46008;-75
2022/04/02 06:12:31;;;;;;;;;4.00;3.50;;;;;20.46;37.34;100106.84;146604;583;46017;-75
2022/04/02 06:15:24;;;;;;;;;2.50;2.50;;;;;20.56;37.21;100123.59;146601;575;46916;-75
2022/04/02 06:18:19;;;;;;;;;4.25;3.00;;;;;20.74;37.14;100131.50;146604;592;46026;-75
2022/04/02 06:21:11;;;;;;;;;22.00;17.25;;;;;20.96;36.77;100132.37;146607;620;46008;-75
2022/04/02 06:24:06;;;;;;;;;10.50;8.00;;;;;21.21;36.84;100142.91;146606;611;46010;-74
2022/04/02 06:26:58;;;;;;;;;3.50;3.25;;;;;21.41;37.18;100140.28;146604;657;47012;-74
2022/04/02 06:29:51;;;;;;;;;3.33;2.33;;;;;21.62;35.90;100150.78;146601;653;46016;-72
2022/04/02 06:32:43;;;;;;;;;4.00;4.00;;;;;21.81;36.18;100159.50;146605;591;46020;-71
2022/04/02 06:35:36;;;;;;;;;3.50;3.50;;;;;21.86;35.43;100157.69;146600;606;47012;-75
2022/04/02 06:38:28;;;;;;;;;3.25;2.75;;;;;21.88;36.45;100157.72;146607;671;46008;-75
2022/04/02 06:41:20;;;;;;;;;2.67;1.67;;;;;22.00;34.61;100156.78;146602;593;47010;-76
2022/04/02 06:44:13;;;;;;;;;2.33;2.33;;;;;22.07;35.36;100164.66;146605;608;46021;-76
2022/04/02 06:47:05;;;;;;;;;2.00;2.00;;;;;22.16;34.97;100161.12;146605;581;46914;-75
2022/04/02 06:49:57;;;;;;;;;3.00;2.00;;;;;21.45;35.12;100016.28;146612;652;46008;-70
2022/04/02 06:52:50;;;;;;;;;2.33;2.33;;;;;22.45;35.37;100155.69;146603;625;47012;-72
2022/04/02 06:55:42;;;;;;;;;3.33;3.33;;;;;22.61;33.04;100164.38;146609;603;46008;-72
2022/04/02 06:58:42;;;;;;;;;7.67;6.67;;;;;22.69;34.69;100159.06;146607;676;46017;-73
2022/04/02 07:01:34;;;;;;;;;8.33;7.00;;;;;22.79;35.33;100166.88;146608;690;46008;-80
2022/04/02 07:04:27;;;;;;;;;5.00;4.25;;;;;22.94;34.50;100187.09;146602;629;46013;-79
2022/04/02 07:07:19;;;;;;;;;3.00;3.00;;;;;22.98;34.29;100183.50;146610;607;45021;-77
2022/04/02 07:10:13;;;;;;;;;5.00;4.67;;;;;22.98;34.87;100182.66;146605;589;46010;-85
2022/04/02 07:13:05;;;;;;;;;7.25;6.00;;;;;22.93;33.07;100179.13;146606;711;46008;-74
2022/04/02 07:15:57;;;;;;;;;6.67;6.67;;;;;22.83;34.58;100180.97;146606;611;45914;-75
2022/04/02 07:18:52;;;;;;;;;4.00;3.00;;;;;22.87;35.42;100182.72;146606;676;46020;-76
2022/04/02 07:21:45;;;;;;;;;5.33;5.00;;;;;23.04;35.52;100187.88;146601;615;46010;-75
2022/04/02 07:24:38;;;;;;;;;2.33;2.33;;;;;23.22;35.13;100192.16;146606;579;46008;-75
2022/04/02 07:27:32;;;;;;;;;5.67;4.00;;;;;23.40;33.66;100185.81;146602;637;46017;-76
2022/04/02 07:30:24;;;;;;;;;5.67;3.67;;;;;23.51;34.97;100199.78;146606;611;46020;-77
2022/04/02 07:33:17;;;;;;;;;1.33;1.33;;;;;23.59;33.70;100186.50;146607;570;46914;-77
2022/04/02 07:36:14;;;;;;;;;3.33;3.00;;;;;23.65;34.50;100184.66;146608;609;47008;-76
2022/04/02 07:39:12;;;;;;;;;2.33;1.33;;;;;23.78;34.28;100184.56;146605;606;47010;-76
2022/04/02 07:42:13;;;;;;;;;3.00;2.33;;;;;23.92;35.29;100193.19;146608;574;46020;-75
2022/04/02 07:45:14;;;;;;;;;11.75;11.00;;;;;23.98;33.26;100177.25;146603;600;46016;-76
2022/04/02 07:48:11;;;;;;;;;5.33;3.00;;;;;23.97;34.40;100173.72;146609;566;46008;-76
2022/04/02 07:51:07;;;;;;;;;6.33;5.33;;;;;23.92;31.44;100158.78;146601;625;46017;-80
2022/04/02 07:54:06;;;;;;;;;3.00;3.00;;;;;23.78;33.10;100169.53;146608;572;46020;-77
2022/04/02 07:57:06;;;;;;;;;31.00;27.00;;;;;23.71;34.00;100174.03;146604;639;46012;-77
2022/04/02 08:00:06;;;;;;;;;5.00;4.00;;;;;23.79;34.17;100186.31;146603;618;46020;-77
2022/04/02 08:03:00;;;;;;;;;3.67;3.00;;;;;23.94;34.27;100184.34;146608;592;46010;-77
2022/04/02 08:05:55;;;;;;;;;2.33;2.33;;;;;24.07;34.13;100181.53;146605;606;46021;-77
2022/04/02 08:08:47;;;;;;;;;6.00;5.25;;;;;24.27;34.17;100189.22;146605;685;46016;-76
2022/04/02 08:11:40;;;;;;;;;5.33;3.67;;;;;24.47;33.24;100171.31;146608;587;46021;-77
2022/04/02 08:14:34;;;;;;;;;5.00;5.00;;;;;24.66;33.85;100171.91;146606;581;46016;-76
2022/04/02 08:17:26;;;;;;;;;3.00;3.00;;;;;24.81;32.98;100173.47;146605;593;46020;-77
2022/04/02 08:20:19;;;;;;;;;5.25;4.25;;;;;24.92;32.62;100179.44;146602;663;47010;-75
2022/04/02 08:23:11;;;;;;;;;2.00;1.00;;;;;24.94;32.05;100174.12;146605;578;46020;-76
2022/04/02 08:26:27;;;;;;;;;9.00;7.50;;;;;24.80;32.12;100175.25;146605;631;46914;-76
2022/04/02 08:30:22;;;;;;;;;5.25;3.75;;;;;23.76;34.05;100046.03;146604;679;46020;-76
2022/04/02 08:33:47;;;;;;;;;2.67;2.67;;;;;24.31;34.54;100173.28;146602;580;46016;-77
2022/04/02 08:36:52;;;;;;;;;2.00;2.00;;;;;24.52;33.58;100165.97;146606;586;46020;-79
2022/04/02 08:40:05;;;;;;;;;4.00;2.67;;;;;24.58;34.10;100165.84;146607;645;46914;-80
2022/04/02 08:43:37;;;;;;;;;2.33;2.33;;;;;24.70;34.85;100172.75;146610;648;46020;-80
2022/04/02 08:47:06;;;;;;;;;3.33;2.00;;;;;24.63;33.82;100103.91;146605;609;46913;-79
2022/04/02 08:50:11;;;;;;;;;1.00;1.00;;;;;25.10;31.97;100178.28;146608;663;46008;-79
2022/04/02 08:53:47;;;;;;;;;2.67;2.67;;;;;24.35;33.14;100098.13;146605;616;46914;-79
2022/04/02 08:56:48;;;;;;;;;3.00;3.00;;;;;24.45;33.23;100170.47;146609;648;46020;-79
2022/04/02 08:59:45;;;;;;;;;3.00;3.00;;;;;24.35;34.00;100172.34;146605;595;46016;-77
2022/04/02 09:03:18;;;;;;;;;4.00;3.00;;;;;22.82;32.82;99934.25;146599;636;47008;-79
2022/04/02 09:06:43;;;;;;;;;3.67;3.00;;;;;23.90;33.83;100180.00;146605;579;47010;-82
2022/04/02 09:10:12;;;;;;;;;5.00;4.00;;;;;23.64;34.90;100167.00;146610;664;45021;-78
2022/04/02 09:13:36;;;;;;;;;2.67;2.00;;;;;23.65;35.27;100162.63;146602;597;46010;-78
2022/04/02 09:17:00;;;;;;;;;1.00;1.00;;;;;23.74;33.58;100165.19;146604;569;46020;-79
2022/04/02 09:20:38;;;;;;;;;2.00;2.00;;;;;23.23;35.08;100024.63;146607;601;46010;-80
2022/04/02 09:24:05;;;;;;;;;1.00;1.00;;;;;24.47;34.37;100159.84;146608;621;46020;-80
2022/04/02 09:27:55;;;;;;;;;1.00;1.00;;;;;24.29;34.23;100045.25;146605;570;46915;-81
2022/04/02 09:31:37;;;;;;;;;2.67;2.00;;;;;25.23;33.32;100163.91;146610;594;46008;-80
2022/04/02 09:35:16;;;;;;;;;1.00;1.00;;;;;25.38;32.75;100167.22;146607;608;46915;-81
2022/04/02 09:38:48;;;;;;;;;2.00;2.00;;;;;24.70;32.99;100041.06;146609;598;45917;-80
2022/04/02 09:42:19;;;;;;;;;2.00;2.00;;;;;25.42;31.22;100129.09;146604;586;46016;-82
2022/04/02 09:45:17;;;;;;;;;2.00;2.00;;;;;25.69;31.22;100168.38;146608;577;46008;-81
2022/04/02 09:48:27;;;;;;;;;2.00;2.00;;;;;25.71;30.05;100166.56;146605;574;46016;-81
2022/04/02 09:51:23;;;;;;;;;2.00;1.00;;;;;25.58;30.57;100168.59;146608;659;46020;-81
2022/04/02 09:54:44;;;;;;;;;1.33;0.33;;;;;25.42;31.74;100158.28;146604;599;46017;-80
2022/04/02 09:58:42;;;;;;;;;2.33;1.67;;;;;25.50;32.71;100178.47;146607;569;46020;-81
2022/04/02 10:02:07;;;;;;;;;2.67;1.33;;;;;24.83;31.78;100037.31;146606;632;46912;-80
2022/04/02 10:05:08;;;;;;;;;1.00;1.00;;;;;25.65;30.82;100182.63;146610;583;46010;-80
2022/04/02 10:08:39;;;;;;;;;3.00;2.00;;;;;25.11;33.00;100063.34;146628;589;45016;-80
2022/04/02 10:11:34;;;;;;;;;2.00;0.00;;;;;25.95;30.70;100178.53;146628;617;46008;-82
2022/04/02 10:14:28;;;;;;;;;1.67;1.00;;;;;25.08;30.42;100040.37;146625;602;45914;-79
2022/04/02 10:17:25;;;;;;;;;4.75;3.75;;;;;25.75;30.64;100183.31;146628;565;45020;-81
2022/04/02 10:20:24;;;;;;;;;1.33;1.33;;;;;24.98;30.89;100061.78;146627;602;45914;-81
2022/04/02 10:23:33;;;;;;;;;1.00;1.00;;;;;25.51;30.71;100188.22;146629;623;45008;-80
2022/04/02 10:26:26;;;;;;;;;1.33;1.00;;;;;25.12;29.61;100177.38;146626;569;46010;-77
2022/04/02 10:29:38;;;;;;;;;2.00;2.00;;;;;24.93;32.46;100169.75;146631;564;44021;-78
2022/04/02 10:36:13;;;;;;;;;3.00;3.00;;;;;24.20;31.34;100040.09;146630;570;46012;-75
2022/04/02 10:39:05;;;;;;;;;2.33;1.67;;;;;25.10;32.84;100165.00;146622;618;45915;-75
2022/04/02 10:42:07;;;;;;;;;1.00;1.00;;;;;25.25;31.68;100166.56;146626;589;46020;-75
2022/04/02 10:45:07;;;;;;;;;1.00;1.00;;;;;25.07;31.82;100165.94;146629;631;45011;-75
2022/04/02 10:48:15;;;;;;;;;1.33;1.33;;;;;24.77;32.75;100162.03;146632;609;44020;-74
2022/04/02 10:51:07;;;;;;;;;5.50;5.50;;;;;24.48;32.20;100153.63;146629;575;46914;-74
2022/04/02 10:54:16;;;;;;;;;2.00;2.00;;;;;23.58;33.39;100037.41;146628;650;45021;-75
2022/04/02 10:57:09;;;;;;;;;4.67;3.67;;;;;24.07;33.10;100150.62;146628;658;45914;-74
2022/04/02 11:00:08;;;;;;;;;2.67;2.33;;;;;23.64;31.51;100164.34;146629;598;45008;-75
2022/04/02 11:03:10;;;;;;;;;4.75;2.25;;;;;22.98;32.85;100187.94;146624;688;46008;-74
2022/04/02 11:06:02;;;;;;;;;3.67;2.33;;;;;22.55;34.43;100194.38;146620;601;46020;-75
2022/04/02 11:08:55;;;;;;;;;1.50;1.50;;;;;22.20;35.01;100215.69;146606;600;45915;-74
2022/04/02 11:11:48;;;;;;;;;4.00;2.00;;;;;21.89;35.95;100213.13;146606;576;46020;-75
2022/04/02 11:14:45;;;;;;;;;1.67;1.33;;;;;21.79;36.69;100229.88;146606;569;46914;-74
2022/04/02 11:17:43;;;;;;;;;2.00;2.00;;;;;21.72;37.04;100219.34;146607;633;46020;-74
2022/04/02 11:20:38;;;;;;;;;4.67;4.00;;;;;21.67;37.36;100216.69;146605;584;46013;-74
2022/04/02 11:23:56;;;;;;;;;2.00;2.00;;;;;20.61;37.17;100037.56;146608;597;46021;-74
2022/04/02 11:26:53;;;;;;;;;2.00;2.00;;;;;21.59;37.27;100208.81;146603;664;46016;-75
2022/04/02 11:29:53;;;;;;;;;3.33;2.00;;;;;21.57;37.63;100185.94;146606;665;46025;-75
2022/04/02 11:32:50;;;;;;;;;2.00;1.67;;;;;21.63;37.79;100194.72;146607;570;46016;-75
2022/04/02 11:35:54;;;;;;;;;1.00;1.00;;;;;21.90;37.88;100198.19;146607;634;46008;-74
2022/04/02 11:39:10;;;;;;;;;1.67;1.67;;;;;22.16;37.86;100182.25;146605;656;46016;-76
2022/04/02 11:42:05;;;;;;;;;1.67;1.67;;;;;22.60;37.36;100187.28;146609;587;46008;-75
2022/04/02 11:44:58;;;;;;;;;1.33;1.33;;;;;23.14;35.77;100188.69;146604;595;46017;-74
2022/04/02 11:48:21;;;;;;;;;0.67;0.67;;;;;23.48;35.58;100184.81;146611;599;46008;-75
2022/04/02 11:51:20;;;;;;;;;0.33;0.33;;;;;23.54;35.95;100183.00;146603;673;46913;-75
2022/04/02 11:54:12;;;;;;;;;1.00;1.00;;;;;23.56;35.44;100171.53;146607;632;46020;-75
2022/04/02 11:57:13;;;;;;;;;2.00;1.33;;;;;23.77;35.28;100161.59;146606;626;47010;-74
2022/04/02 12:00:05;;;;;;;;;0.00;0.00;;;;;24.04;34.76;100133.91;146609;612;46021;-75
2022/04/02 12:02:57;;;;;;;;;1.33;1.00;;;;;23.72;34.86;100010.78;146606;591;46016;-75
2022/04/02 12:05:52;;;;;;;;;1.00;0.00;;;;;24.64;33.63;100113.62;146607;571;47009;-75
2022/04/02 12:08:45;;;;;;;;;1.00;1.00;;;;;24.42;32.65;100121.06;146606;618;46017;-74
2022/04/02 12:11:38;;;;;;;;;1.67;0.67;;;;;24.26;33.25;100127.41;146610;614;45043;-73
2022/04/02 12:14:41;;;;;;;;;0.00;0.00;;;;;24.27;33.32;100138.87;146603;610;46017;-73
2022/04/02 12:17:36;;;;;;;;;3.00;2.00;;;;;24.18;32.60;100119.59;146607;643;46020;-75
2022/04/02 12:20:36;;;;;;;;;2.00;2.00;;;;;23.90;33.04;100127.03;146609;579;45877;-73
2022/04/02 12:23:29;;;;;;;;;1.00;0.00;;;;;23.59;33.49;100128.28;146610;586;46025;-74
2022/04/02 12:26:27;;;;;;;;;1.67;1.67;;;;;23.54;33.52;100130.09;146607;565;46016;-75
2022/04/02 12:29:22;;;;;;;;;0.00;0.00;;;;;23.65;31.26;100112.31;146606;564;47012;-72
2022/04/02 12:32:14;;;;;;;;;0.00;0.00;;;;;23.78;33.40;100106.00;146607;570;46016;-72
2022/04/02 12:35:16;;;;;;;;;0.00;0.00;;;;;23.96;32.50;100107.56;146608;643;47008;-72
2022/04/02 12:38:12;;;;;;;;;0.00;0.00;;;;;24.18;32.37;100108.13;146606;591;46010;-74
2022/04/02 12:41:06;;;;;;;;;0.00;0.00;;;;;24.45;31.58;100108.63;146608;579;46020;-70
2022/04/02 12:44:11;;;;;;;;;0.00;0.00;;;;;24.60;30.65;100119.88;146602;613;46017;-72
2022/04/02 12:47:15;;;;;;;;;0.00;0.00;;;;;24.63;31.16;100119.81;146610;592;46008;-73
2022/04/02 12:50:15;;;;;;;;;0.00;0.00;;;;;24.61;31.10;100113.69;146604;600;46016;-70
2022/04/02 12:53:09;;;;;;;;;2.00;0.00;;;;;24.58;31.07;100134.03;146606;570;46021;-72
2022/04/02 12:56:07;;;;;;;;;0.00;0.00;;;;;24.59;30.02;100117.25;146606;643;46016;-73
2022/04/02 12:59:00;;;;;;;;;0.00;0.00;;;;;24.55;30.23;100103.19;146606;576;46008;-75
2022/04/02 13:01:52;;;;;;;;;0.00;0.00;;;;;24.52;30.48;100103.22;146606;575;46914;-73
2022/04/02 13:04:46;;;;;;;;;0.00;0.00;;;;;24.46;30.44;100107.75;146605;647;46008;-73
2022/04/02 13:07:41;;;;;;;;;0.00;0.00;;;;;24.43;30.40;100106.91;146628;584;45914;-72
2022/04/02 13:10:35;;;;;;;;;1.00;0.00;;;;;24.45;30.90;100112.16;146630;571;45916;-72
2022/04/02 13:13:46;;;;;;;;;0.00;0.00;;;;;24.45;30.62;100121.87;146628;592;46914;-74
2022/04/02 13:16:43;;;;;;;;;0.00;0.00;;;;;24.43;31.33;100121.94;146631;651;45020;-75
2022/04/02 13:23:10;;;;;;;;;0.00;0.00;;;;;23.94;30.42;100131.38;146628;585;46008;-74
2022/04/02 13:26:10;;;;;;;;;1.00;0.00;;;;;23.43;32.14;100128.44;146629;569;45032;-73
2022/04/02 13:29:56;;;;;;;;;0.00;0.00;;;;;22.97;33.44;100139.47;146626;600;45917;-73
2022/04/02 13:33:42;;;;;;;;;0.00;0.00;;;;;21.14;33.52;99861.72;146631;603;45016;-73
2022/04/02 13:37:17;;;;;;;;;0.00;0.00;;;;;22.77;32.74;100152.84;146629;617;45021;-73
2022/04/02 13:40:17;;;;;;;;;0.00;0.00;;;;;22.91;33.18;100130.69;146628;565;46010;-72
2022/04/02 13:43:13;;;;;;;;;0.00;0.00;;;;;23.01;32.46;100135.03;146629;658;45021;-74
2022/04/02 13:46:15;;;;;;;;;0.00;0.00;;;;;22.91;33.39;100094.53;146626;649;45016;-74
2022/04/02 13:49:12;;;;;;;;;0.00;0.00;;;;;23.21;32.49;100122.50;146628;584;46008;-73
2022/04/02 13:52:06;;;;;;;;;0.00;0.00;;;;;23.31;32.89;100117.12;146624;654;45914;-73
2022/04/02 13:55:14;;;;;;;;;0.00;0.00;;;;;23.33;33.47;100113.53;146630;738;46008;-74
2022/04/02 13:58:12;;;;;;;;;0.00;0.00;;;;;23.44;32.54;100109.03;146629;564;45010;-75
2022/04/02 14:01:10;;;;;;;;;0.00;0.00;;;;;23.51;31.86;100110.69;146631;711;45020;-74